GIA261 WIII-WSSS
Flight info
| Callsign | GIA261 |
|---|---|
| Flight time | N/A |
| Altitude | 36000 |
| Route | DOLTA G579 REPOV REPOV2B |
| Aircraft | A339/H-SADE1E2E3GHIJ3J5M1P2RWXY/LB2D1 |
Departure
| Time | 2026-05-07 15:58 |
|---|---|
| Airport | Soekarno-Hatta International Airport (WIII) |
Arrival
| Time | N/A |
|---|---|
| Airport | Singapore Changi Airport (WSSS) |
| Time | Latitude | Longitude | Altitude | Speed | Heading |
|---|---|---|---|---|---|
| 2026-05-07 15:32 | -6.13370 | 106.65328 | 51 ft | 0 kts | 158° |
| 2026-05-07 15:41 | -6.13370 | 106.65327 | 52 ft | 0 kts | 158° |
| 2026-05-07 15:41 | -6.13357 | 106.65322 | 52 ft | 2 kts | 158° |
| 2026-05-07 15:42 | -6.13343 | 106.65317 | 52 ft | 2 kts | 159° |
| 2026-05-07 15:42 | -6.13330 | 106.65314 | 52 ft | 2 kts | 180° |
| 2026-05-07 15:42 | -6.13316 | 106.65315 | 52 ft | 2 kts | 199° |
| 2026-05-07 15:42 | -6.13304 | 106.65321 | 52 ft | 2 kts | 217° |
| 2026-05-07 15:43 | -6.13294 | 106.65331 | 52 ft | 2 kts | 236° |
| 2026-05-07 15:43 | -6.13290 | 106.65338 | 52 ft | 0 kts | 247° |
| 2026-05-07 15:43 | -6.13288 | 106.65342 | 52 ft | 0 kts | 248° |
| 2026-05-07 15:48 | -6.13291 | 106.65334 | 51 ft | 2 kts | 246° |
| 2026-05-07 15:48 | -6.13294 | 106.65329 | 51 ft | 0 kts | 245° |
| 2026-05-07 15:48 | -6.13298 | 106.65318 | 51 ft | 2 kts | 245° |
| 2026-05-07 15:49 | -6.13305 | 106.65303 | 51 ft | 3 kts | 245° |
| 2026-05-07 15:49 | -6.13318 | 106.65276 | 51 ft | 5 kts | 245° |
| 2026-05-07 15:49 | -6.13338 | 106.65237 | 51 ft | 6 kts | 229° |
| 2026-05-07 15:49 | -6.13382 | 106.65225 | 51 ft | 7 kts | 163° |
| 2026-05-07 15:50 | -6.13416 | 106.65235 | 51 ft | 8 kts | 162° |
| 2026-05-07 15:51 | -6.13705 | 106.64999 | 51 ft | 14 kts | 248° |
| 2026-05-07 15:52 | -6.13753 | 106.64958 | 52 ft | 4 kts | 156° |
| 2026-05-07 15:52 | -6.13788 | 106.64973 | 51 ft | 6 kts | 168° |
| 2026-05-07 15:52 | -6.13821 | 106.64951 | 51 ft | 6 kts | 246° |
| 2026-05-07 15:52 | -6.13840 | 106.64899 | 51 ft | 8 kts | 249° |
| 2026-05-07 15:53 | -6.13861 | 106.64847 | 51 ft | 9 kts | 248° |
| 2026-05-07 15:53 | -6.13891 | 106.64771 | 52 ft | 11 kts | 248° |
| 2026-05-07 15:53 | -6.13921 | 106.64695 | 51 ft | 12 kts | 248° |
| 2026-05-07 15:53 | -6.13949 | 106.64623 | 52 ft | 13 kts | 248° |
| 2026-05-07 15:54 | -6.13985 | 106.64534 | 52 ft | 14 kts | 248° |
| 2026-05-07 15:54 | -6.14020 | 106.64447 | 51 ft | 14 kts | 248° |
| 2026-05-07 15:54 | -6.14056 | 106.64354 | 51 ft | 15 kts | 249° |
| 2026-05-07 15:54 | -6.14095 | 106.64302 | 51 ft | 0 kts | 201° |
| 2026-05-07 15:55 | -6.14100 | 106.64300 | 51 ft | 1 kts | 200° |
| 2026-05-07 15:56 | -6.14119 | 106.64296 | 51 ft | 3 kts | 186° |
| 2026-05-07 15:56 | -6.14150 | 106.64301 | 52 ft | 5 kts | 159° |
| 2026-05-07 15:56 | -6.14183 | 106.64329 | 51 ft | 7 kts | 124° |
| 2026-05-07 15:56 | -6.14206 | 106.64380 | 51 ft | 8 kts | 112° |
| 2026-05-07 15:57 | -6.14221 | 106.64442 | 52 ft | 9 kts | 85° |
| 2026-05-07 15:57 | -6.14211 | 106.64475 | 52 ft | 0 kts | 68° |
| 2026-05-07 15:57 | -6.14193 | 106.64519 | 52 ft | 30 kts | 68° |
| 2026-05-07 15:57 | -6.14038 | 106.64912 | 52 ft | 95 kts | 69° |
| 2026-05-07 15:58 | -6.13731 | 106.65694 | 56 ft | 149 kts | 69° |
| 2026-05-07 15:58 | -6.13337 | 106.66680 | 408 ft | 163 kts | 69° |
| 2026-05-07 15:58 | -6.12920 | 106.67712 | 1007 ft | 166 kts | 69° |
| 2026-05-07 15:58 | -6.12497 | 106.68779 | 1657 ft | 167 kts | 69° |
| 2026-05-07 15:59 | -6.12062 | 106.69875 | 2150 ft | 178 kts | 68° |
| 2026-05-07 15:59 | -6.11636 | 106.70940 | 2474 ft | 190 kts | 68° |
| 2026-05-07 15:59 | -6.11188 | 106.72230 | 2773 ft | 203 kts | 81° |
| 2026-05-07 15:59 | -6.11293 | 106.73593 | 3044 ft | 218 kts | 111° |
| 2026-05-07 16:00 | -6.12182 | 106.74856 | 3423 ft | 232 kts | 140° |
| 2026-05-07 16:00 | -6.13525 | 106.75709 | 4025 ft | 238 kts | 154° |
| 2026-05-07 16:00 | -6.15079 | 106.76269 | 4727 ft | 241 kts | 170° |
| 2026-05-07 16:00 | -6.16525 | 106.76181 | 5323 ft | 244 kts | 199° |
| 2026-05-07 16:01 | -6.17851 | 106.75409 | 5941 ft | 247 kts | 220° |
| 2026-05-07 16:01 | -6.19012 | 106.74101 | 6612 ft | 251 kts | 242° |
| 2026-05-07 16:01 | -6.19405 | 106.72508 | 7018 ft | 264 kts | 273° |
| 2026-05-07 16:01 | -6.19028 | 106.70693 | 7418 ft | 279 kts | 287° |
| 2026-05-07 16:02 | -6.18481 | 106.68917 | 7943 ft | 289 kts | 288° |
| 2026-05-07 16:02 | -6.17916 | 106.67122 | 8648 ft | 292 kts | 288° |
| 2026-05-07 16:02 | -6.17320 | 106.65189 | 9433 ft | 295 kts | 287° |
| 2026-05-07 16:02 | -6.16735 | 106.63245 | 10193 ft | 298 kts | 287° |
| 2026-05-07 16:03 | -6.16143 | 106.61253 | 10737 ft | 309 kts | 287° |
| 2026-05-07 16:03 | -6.15519 | 106.59131 | 11109 ft | 326 kts | 287° |
| 2026-05-07 16:03 | -6.14894 | 106.56993 | 11704 ft | 335 kts | 287° |
| 2026-05-07 16:03 | -6.14235 | 106.54732 | 12501 ft | 337 kts | 287° |
| 2026-05-07 16:04 | -6.13607 | 106.52677 | 13198 ft | 340 kts | 291° |
| 2026-05-07 16:04 | -6.12241 | 106.50635 | 13929 ft | 344 kts | 320° |
| 2026-05-07 16:04 | -6.10475 | 106.49461 | 14615 ft | 346 kts | 331° |
| 2026-05-07 16:04 | -6.08488 | 106.48385 | 15324 ft | 349 kts | 332° |
| 2026-05-07 16:05 | -6.06350 | 106.47237 | 16048 ft | 354 kts | 332° |
| 2026-05-07 16:05 | -6.04234 | 106.46072 | 16771 ft | 357 kts | 332° |
| 2026-05-07 16:05 | -6.02091 | 106.44865 | 17499 ft | 361 kts | 331° |
| 2026-05-07 16:05 | -5.99899 | 106.43609 | 18229 ft | 365 kts | 331° |
| 2026-05-07 16:06 | -5.97718 | 106.42346 | 18935 ft | 369 kts | 330° |
| 2026-05-07 16:06 | -5.95585 | 106.41104 | 19608 ft | 373 kts | 330° |
| 2026-05-07 16:06 | -5.93308 | 106.39776 | 20295 ft | 376 kts | 331° |
| 2026-05-07 16:06 | -5.91075 | 106.38472 | 20940 ft | 380 kts | 330° |
| 2026-05-07 16:07 | -5.88850 | 106.37164 | 21561 ft | 384 kts | 330° |
| 2026-05-07 16:07 | -5.86688 | 106.35894 | 22143 ft | 387 kts | 330° |
| 2026-05-07 16:07 | -5.84337 | 106.34513 | 22750 ft | 391 kts | 330° |
| 2026-05-07 16:07 | -5.82024 | 106.33155 | 23321 ft | 394 kts | 331° |
| 2026-05-07 16:08 | -5.79649 | 106.31761 | 23760 ft | 398 kts | 331° |
| 2026-05-07 16:08 | -5.77291 | 106.30379 | 24221 ft | 402 kts | 331° |
| 2026-05-07 16:08 | -5.74946 | 106.29004 | 24808 ft | 404 kts | 331° |
| 2026-05-07 16:08 | -5.72513 | 106.27577 | 25361 ft | 406 kts | 331° |
| 2026-05-07 16:09 | -5.70123 | 106.26176 | 25858 ft | 410 kts | 331° |
| 2026-05-07 16:09 | -5.67675 | 106.24741 | 26347 ft | 413 kts | 331° |
| 2026-05-07 16:09 | -5.65226 | 106.23305 | 26821 ft | 416 kts | 331° |
| 2026-05-07 16:09 | -5.62724 | 106.21839 | 27289 ft | 419 kts | 331° |
| 2026-05-07 16:10 | -5.60268 | 106.20400 | 27735 ft | 422 kts | 331° |
| 2026-05-07 16:10 | -5.57753 | 106.18926 | 28179 ft | 425 kts | 331° |
| 2026-05-07 16:10 | -5.55215 | 106.17439 | 28613 ft | 427 kts | 331° |
| 2026-05-07 16:10 | -5.53117 | 106.16209 | 28961 ft | 430 kts | 331° |
| 2026-05-07 16:11 | -5.50850 | 106.14881 | 29327 ft | 432 kts | 331° |
| 2026-05-07 16:11 | -5.48218 | 106.13340 | 29741 ft | 435 kts | 331° |
| 2026-05-07 16:11 | -5.45629 | 106.11824 | 30135 ft | 438 kts | 331° |
| 2026-05-07 16:11 | -5.43050 | 106.10313 | 30516 ft | 440 kts | 331° |
| 2026-05-07 16:12 | -5.40391 | 106.08757 | 30897 ft | 443 kts | 331° |
| 2026-05-07 16:12 | -5.37776 | 106.07226 | 31263 ft | 445 kts | 331° |
| 2026-05-07 16:12 | -5.35130 | 106.05677 | 31622 ft | 448 kts | 331° |
| 2026-05-07 16:12 | -5.32838 | 106.04336 | 31921 ft | 450 kts | 331° |
| 2026-05-07 16:13 | -5.29932 | 106.02634 | 32291 ft | 453 kts | 331° |
| 2026-05-07 16:13 | -5.27527 | 106.01228 | 32590 ft | 455 kts | 331° |
| 2026-05-07 16:13 | -5.24872 | 105.99674 | 32923 ft | 457 kts | 331° |
| 2026-05-07 16:13 | -5.22118 | 105.98062 | 33367 ft | 456 kts | 331° |
| 2026-05-07 16:14 | -5.19430 | 105.96490 | 33838 ft | 454 kts | 331° |
| 2026-05-07 16:14 | -5.16742 | 105.94918 | 34284 ft | 453 kts | 331° |
| 2026-05-07 16:14 | -5.14082 | 105.93362 | 34657 ft | 453 kts | 331° |
| 2026-05-07 16:14 | -5.11395 | 105.91798 | 34976 ft | 455 kts | 332° |
| 2026-05-07 16:15 | -5.08847 | 105.90340 | 35263 ft | 456 kts | 332° |
| 2026-05-07 16:15 | -5.06099 | 105.88777 | 35572 ft | 457 kts | 332° |
| 2026-05-07 16:15 | -5.03554 | 105.87331 | 35828 ft | 458 kts | 332° |
| 2026-05-07 16:16 | -4.97903 | 105.84117 | 35884 ft | 460 kts | 332° |
| 2026-05-07 16:16 | -4.92742 | 105.81179 | 35885 ft | 460 kts | 332° |
| 2026-05-07 16:17 | -4.87718 | 105.78317 | 35885 ft | 460 kts | 332° |
| 2026-05-07 16:17 | -4.82153 | 105.75148 | 35885 ft | 460 kts | 332° |
| 2026-05-07 16:18 | -4.76628 | 105.72002 | 35885 ft | 460 kts | 332° |
| 2026-05-07 16:18 | -4.71992 | 105.69364 | 35885 ft | 460 kts | 332° |
| 2026-05-07 16:19 | -4.66361 | 105.66160 | 35885 ft | 459 kts | 332° |
| 2026-05-07 16:19 | -4.61205 | 105.63226 | 35885 ft | 459 kts | 332° |
| 2026-05-07 16:20 | -4.56438 | 105.60514 | 35886 ft | 459 kts | 332° |
| 2026-05-07 16:20 | -4.51127 | 105.57493 | 35890 ft | 459 kts | 332° |
| 2026-05-07 16:21 | -4.46550 | 105.54890 | 35896 ft | 459 kts | 332° |
| 2026-05-07 16:21 | -4.41106 | 105.51794 | 35902 ft | 459 kts | 332° |
| 2026-05-07 16:22 | -4.35935 | 105.48855 | 35900 ft | 459 kts | 332° |
| 2026-05-07 16:22 | -4.30999 | 105.46049 | 35894 ft | 459 kts | 331° |